createdAt,value
2018-03-30T00:00:43.419Z,7.13
2018-03-30T00:01:43.332Z,7.22
2018-03-30T00:02:43.300Z,7.16
2018-03-30T00:03:43.346Z,7.26
2018-03-30T00:04:43.268Z,7.26
2018-03-30T00:05:43.203Z,7.28
2018-03-30T00:06:43.173Z,7.25
2018-03-30T00:07:43.141Z,7.31
2018-03-30T00:08:43.115Z,7.31
2018-03-30T00:09:43.086Z,7.29
2018-03-30T00:10:43.051Z,7.37
2018-03-30T00:11:43.025Z,7.36
2018-03-30T00:12:42.995Z,7.42
2018-03-30T00:13:42.962Z,7.50
2018-03-30T00:14:42.930Z,7.52
2018-03-30T00:15:42.902Z,7.54
2018-03-30T00:16:42.867Z,7.57
2018-03-30T00:17:42.967Z,7.55
2018-03-30T00:18:42.808Z,7.57
2018-03-30T00:19:42.776Z,7.61
2018-03-30T00:20:42.748Z,7.58
2018-03-30T00:21:42.713Z,7.58
2018-03-30T00:22:42.678Z,7.64
2018-03-30T00:23:42.657Z,7.68
2018-03-30T00:24:42.624Z,7.64
2018-03-30T00:25:42.591Z,7.64
2018-03-30T00:26:42.558Z,7.61
2018-03-30T00:27:42.529Z,7.73
2018-03-30T00:28:42.496Z,7.66
2018-03-30T00:29:42.517Z,7.77
2018-03-30T00:30:42.447Z,7.66
2018-03-30T00:31:42.415Z,7.62
2018-03-30T00:32:42.379Z,7.66
2018-03-30T00:33:42.349Z,7.62
2018-03-30T00:34:42.328Z,7.61
2018-03-30T00:35:42.294Z,7.76
2018-03-30T00:36:42.265Z,7.64
2018-03-30T00:37:42.223Z,7.77
2018-03-30T00:38:42.194Z,7.74
2018-03-30T00:39:42.189Z,7.68
2018-03-30T00:40:42.150Z,7.73
2018-03-30T00:41:42.101Z,7.78
2018-03-30T00:42:42.071Z,7.80
2018-03-30T00:43:42.035Z,7.84
2018-03-30T00:44:42.055Z,7.83
2018-03-30T00:45:41.986Z,7.83
2018-03-30T00:46:41.952Z,7.78
2018-03-30T00:47:41.927Z,7.86
2018-03-30T00:48:41.888Z,7.77
2018-03-30T00:49:41.859Z,7.86
2018-03-30T00:50:41.834Z,7.98
2018-03-30T00:51:41.798Z,7.88
2018-03-30T00:52:41.774Z,7.87
2018-03-30T00:53:41.731Z,7.91
2018-03-30T00:54:41.699Z,7.86
2018-03-30T00:55:41.672Z,7.84
2018-03-30T00:56:41.644Z,7.95
2018-03-30T00:57:41.607Z,7.95
2018-03-30T00:58:41.577Z,7.95
2018-03-30T00:59:41.553Z,7.98
2018-03-30T01:00:41.588Z,8.02
2018-03-30T01:01:41.498Z,8.13
2018-03-30T01:02:41.464Z,8.13
2018-03-30T01:03:41.434Z,8.09
2018-03-30T01:04:41.407Z,8.10
2018-03-30T01:05:41.365Z,8.05
2018-03-30T01:06:41.333Z,8.13
2018-03-30T01:07:41.315Z,8.16
2018-03-30T01:08:41.277Z,8.16
2018-03-30T01:09:41.250Z,8.17
2018-03-30T01:10:41.220Z,8.21
2018-03-30T01:11:41.192Z,8.13
2018-03-30T01:12:41.166Z,8.21
2018-03-30T01:13:41.129Z,8.21
2018-03-30T01:14:41.095Z,8.19
2018-03-30T01:15:41.074Z,8.24
2018-03-30T01:16:41.036Z,8.26
2018-03-30T01:17:41.006Z,8.24
2018-03-30T01:18:40.973Z,8.20
2018-03-30T01:19:40.941Z,8.19
2018-03-30T01:20:40.910Z,8.17
2018-03-30T01:21:40.882Z,8.24
2018-03-30T01:22:40.861Z,8.24
2018-03-30T01:23:40.820Z,8.21
2018-03-30T01:24:40.792Z,8.26
2018-03-30T01:25:40.764Z,8.20
2018-03-30T01:26:40.738Z,8.23
2018-03-30T01:27:40.706Z,8.26
2018-03-30T01:28:40.676Z,8.24
2018-03-30T01:29:40.644Z,8.24
2018-03-30T01:30:40.612Z,8.32
2018-03-30T01:31:40.584Z,8.29
2018-03-30T01:32:40.555Z,8.29
2018-03-30T01:33:40.514Z,8.28
2018-03-30T01:34:40.484Z,8.24
2018-03-30T01:35:40.574Z,8.28
2018-03-30T01:36:40.428Z,8.21
2018-03-30T01:37:40.397Z,8.29
2018-03-30T01:38:40.366Z,8.34
2018-03-30T01:39:40.333Z,8.24
2018-03-30T01:40:40.311Z,8.28
2018-03-30T01:41:40.282Z,8.26
2018-03-30T01:42:40.256Z,8.32
2018-03-30T01:43:40.215Z,8.34
2018-03-30T01:44:40.193Z,8.34
2018-03-30T01:45:40.156Z,8.34
2018-03-30T01:46:40.129Z,8.32
2018-03-30T01:47:40.094Z,8.23
2018-03-30T01:48:40.072Z,8.29
2018-03-30T01:49:40.033Z,8.24
2018-03-30T01:50:39.999Z,8.28
2018-03-30T01:51:39.972Z,8.35
2018-03-30T01:52:39.947Z,8.34
2018-03-30T01:53:39.908Z,8.35
2018-03-30T01:54:39.883Z,8.31
2018-03-30T01:55:39.847Z,8.34
2018-03-30T01:56:39.821Z,8.32
2018-03-30T01:57:39.800Z,8.28
2018-03-30T01:58:39.760Z,8.26
2018-03-30T01:59:39.733Z,8.28
2018-03-30T02:00:39.701Z,8.21
2018-03-30T02:01:39.675Z,8.23
2018-03-30T02:02:39.643Z,8.21
2018-03-30T02:03:39.667Z,8.20
2018-03-30T02:04:39.603Z,8.23
2018-03-30T02:05:39.555Z,8.24
2018-03-30T02:06:39.528Z,8.21
2018-03-30T02:07:39.489Z,8.28
2018-03-30T02:08:39.465Z,8.24
2018-03-30T02:09:39.430Z,8.17
2018-03-30T02:10:39.399Z,8.20
2018-03-30T02:11:39.444Z,8.19
2018-03-30T02:12:39.344Z,8.19
2018-03-30T02:13:39.308Z,8.17
2018-03-30T02:14:39.276Z,8.14
2018-03-30T02:15:39.245Z,8.26
2018-03-30T02:16:39.218Z,8.24
2018-03-30T02:17:39.187Z,8.23
2018-03-30T02:18:39.157Z,8.21
2018-03-30T02:19:39.122Z,8.20
2018-03-30T02:20:39.102Z,8.23
2018-03-30T02:21:39.069Z,8.21
2018-03-30T02:22:39.041Z,8.14
2018-03-30T02:23:39.009Z,8.20
2018-03-30T02:24:38.975Z,8.20
2018-03-30T02:25:38.954Z,8.21
2018-03-30T02:26:38.926Z,8.24
2018-03-30T02:27:38.897Z,8.16
2018-03-30T02:28:38.860Z,8.16
2018-03-30T02:29:38.820Z,8.17
2018-03-30T02:30:38.790Z,8.23
2018-03-30T02:31:38.760Z,8.17
2018-03-30T02:32:38.732Z,8.20
2018-03-30T02:33:38.754Z,8.12
2018-03-30T02:34:38.665Z,8.21
2018-03-30T02:35:38.643Z,8.19
2018-03-30T02:36:38.674Z,8.21
2018-03-30T02:37:38.604Z,8.24
2018-03-30T02:38:38.551Z,8.20
2018-03-30T02:39:38.519Z,8.23
2018-03-30T02:40:38.493Z,8.26
2018-03-30T02:41:38.505Z,8.28
2018-03-30T02:42:38.430Z,8.21
2018-03-30T02:43:38.402Z,8.32
2018-03-30T02:44:38.441Z,8.26
2018-03-30T02:45:38.332Z,8.28
2018-03-30T02:46:38.318Z,8.26
2018-03-30T02:47:38.337Z,8.23
2018-03-30T02:48:38.252Z,8.19
2018-03-30T02:49:38.229Z,8.23
2018-03-30T02:50:38.183Z,8.24
2018-03-30T02:51:38.157Z,8.20
2018-03-30T02:52:38.165Z,8.23
2018-03-30T02:53:38.100Z,8.20
2018-03-30T02:54:38.068Z,8.20
2018-03-30T02:55:38.069Z,8.13
2018-03-30T02:56:38.003Z,8.23
2018-03-30T02:57:38.048Z,8.19
2018-03-30T02:58:37.948Z,8.17
2018-03-30T02:59:37.919Z,8.14
2018-03-30T03:00:37.888Z,8.20
2018-03-30T03:01:37.848Z,8.14
2018-03-30T03:02:37.816Z,8.16
2018-03-30T03:03:37.788Z,8.17
2018-03-30T03:04:37.759Z,8.17
2018-03-30T03:05:37.731Z,8.20
2018-03-30T03:06:37.699Z,8.13
2018-03-30T03:07:37.677Z,8.13
2018-03-30T03:08:37.645Z,8.10
2018-03-30T03:09:37.616Z,8.13
2018-03-30T03:10:37.599Z,8.10
2018-03-30T03:11:37.555Z,8.14
2018-03-30T03:12:37.523Z,8.12
2018-03-30T03:13:37.486Z,8.16
2018-03-30T03:14:37.470Z,8.13
2018-03-30T03:15:37.424Z,8.10
2018-03-30T03:16:37.399Z,8.17
2018-03-30T03:17:37.429Z,8.17
2018-03-30T03:18:37.335Z,8.16
2018-03-30T03:19:37.304Z,8.10
2018-03-30T03:20:37.276Z,8.12
2018-03-30T03:21:37.244Z,8.17
2018-03-30T03:22:37.256Z,8.23
2018-03-30T03:23:37.184Z,8.23
2018-03-30T03:24:37.156Z,8.20
2018-03-30T03:25:37.123Z,8.19
2018-03-30T03:26:37.087Z,8.23
2018-03-30T03:27:37.061Z,8.34
2018-03-30T03:28:37.032Z,8.28
2018-03-30T03:29:37.002Z,8.21
2018-03-30T03:30:36.970Z,8.29
2018-03-30T03:31:36.937Z,8.29
2018-03-30T03:32:36.908Z,8.35
2018-03-30T03:33:36.886Z,8.34
2018-03-30T03:34:36.850Z,8.23
2018-03-30T03:35:36.820Z,8.24
2018-03-30T03:36:36.790Z,8.32
2018-03-30T03:37:36.759Z,8.26
2018-03-30T03:38:36.737Z,8.35
2018-03-30T03:39:36.706Z,8.21
2018-03-30T03:40:36.674Z,8.28
2018-03-30T03:41:36.636Z,8.20
2018-03-30T03:42:36.605Z,8.29
2018-03-30T03:43:36.575Z,8.29
2018-03-30T03:44:36.544Z,8.21
2018-03-30T03:45:36.569Z,8.21
2018-03-30T03:46:36.480Z,8.12
2018-03-30T03:47:36.456Z,8.10
2018-03-30T03:48:36.421Z,8.09
2018-03-30T03:49:36.395Z,8.09
2018-03-30T03:50:36.370Z,8.14
2018-03-30T03:51:36.343Z,8.12
2018-03-30T03:52:36.308Z,8.09
2018-03-30T03:53:36.274Z,8.01
2018-03-30T03:54:36.242Z,8.01
2018-03-30T03:55:36.214Z,7.99
2018-03-30T03:56:36.188Z,8.01
2018-03-30T03:57:36.148Z,7.99
2018-03-30T03:58:36.130Z,7.99
2018-03-30T03:59:36.093Z,7.86
2018-03-30T04:00:36.060Z,7.88
2018-03-30T04:01:36.049Z,7.84
2018-03-30T04:02:35.995Z,7.84
2018-03-30T04:03:35.963Z,7.83
2018-03-30T04:04:35.940Z,7.86
2018-03-30T04:05:35.909Z,7.88
2018-03-30T04:06:35.877Z,7.83
2018-03-30T04:07:35.849Z,7.78
2018-03-30T04:08:35.824Z,7.83
2018-03-30T04:09:35.790Z,7.76
2018-03-30T04:10:35.756Z,7.87
2018-03-30T04:11:35.736Z,7.91
2018-03-30T04:12:35.693Z,7.86
2018-03-30T04:13:35.664Z,7.94
2018-03-30T04:14:35.672Z,7.86
2018-03-30T04:15:35.599Z,7.92
2018-03-30T04:16:35.567Z,7.86
2018-03-30T04:17:35.542Z,7.88
2018-03-30T04:18:35.515Z,7.95
2018-03-30T04:19:35.481Z,7.86
2018-03-30T04:20:35.453Z,7.88
2018-03-30T04:21:35.420Z,7.84
2018-03-30T04:22:35.387Z,7.86
2018-03-30T04:23:35.364Z,7.92
2018-03-30T04:24:35.332Z,7.87
2018-03-30T04:25:35.300Z,7.95
2018-03-30T04:26:35.264Z,7.96
2018-03-30T04:27:35.239Z,7.86
2018-03-30T04:28:35.208Z,7.92
2018-03-30T04:29:35.174Z,7.88
2018-03-30T04:30:35.146Z,7.83
2018-03-30T04:31:35.156Z,7.96
2018-03-30T04:32:35.094Z,7.84
2018-03-30T04:33:35.055Z,7.84
2018-03-30T04:34:35.030Z,7.80
2018-03-30T04:35:34.996Z,7.84
2018-03-30T04:36:34.988Z,7.92
2018-03-30T04:37:34.938Z,7.84
2018-03-30T04:38:34.906Z,7.95
2018-03-30T04:39:34.869Z,7.94
2018-03-30T04:40:34.911Z,7.91
2018-03-30T04:41:34.811Z,7.95
2018-03-30T04:42:34.775Z,7.96
2018-03-30T04:43:34.766Z,7.86
2018-03-30T04:44:34.727Z,7.95
2018-03-30T04:45:34.690Z,7.92
2018-03-30T04:46:34.661Z,7.96
2018-03-30T04:47:34.673Z,7.95
2018-03-30T04:48:34.598Z,7.96
2018-03-30T04:49:34.570Z,7.95
2018-03-30T04:50:34.548Z,8.02
2018-03-30T04:51:34.507Z,7.96
2018-03-30T04:52:34.484Z,8.02
2018-03-30T04:53:34.449Z,8.01
2018-03-30T04:54:34.412Z,7.98
2018-03-30T04:55:34.382Z,7.98
2018-03-30T04:56:34.354Z,7.98
2018-03-30T04:57:34.324Z,8.05
2018-03-30T04:58:34.292Z,8.06
2018-03-30T04:59:34.267Z,8.10
2018-03-30T05:00:34.232Z,8.09
2018-03-30T05:01:34.204Z,8.06
2018-03-30T05:02:34.178Z,8.09
2018-03-30T05:03:34.142Z,8.10
2018-03-30T05:04:34.117Z,8.13
2018-03-30T05:05:34.080Z,8.17
2018-03-30T05:06:34.049Z,8.10
2018-03-30T05:07:34.022Z,8.14
2018-03-30T05:08:33.992Z,8.19
2018-03-30T05:09:33.957Z,8.26
2018-03-30T05:10:34.012Z,8.20
2018-03-30T05:11:33.896Z,8.16
2018-03-30T05:12:33.867Z,8.09
2018-03-30T05:13:33.843Z,8.17
2018-03-30T05:14:33.810Z,8.16
2018-03-30T05:15:33.774Z,8.10
2018-03-30T05:16:33.799Z,8.17
2018-03-30T05:17:33.726Z,8.21
2018-03-30T05:18:33.690Z,8.19
2018-03-30T05:19:33.660Z,8.19
2018-03-30T05:20:33.629Z,8.19
2018-03-30T05:21:33.591Z,8.17
2018-03-30T05:22:33.563Z,8.23
2018-03-30T05:23:33.532Z,8.23
2018-03-30T05:24:33.503Z,8.14
2018-03-30T05:25:33.475Z,8.17
2018-03-30T05:26:33.515Z,8.17
2018-03-30T05:27:33.420Z,8.20
2018-03-30T05:28:33.382Z,8.16
2018-03-30T05:29:33.369Z,8.24
2018-03-30T05:30:33.329Z,8.26
2018-03-30T05:31:33.298Z,8.21
2018-03-30T05:32:33.265Z,8.23
2018-03-30T05:33:33.305Z,8.26
2018-03-30T05:34:33.205Z,8.28
2018-03-30T05:35:33.171Z,8.26
2018-03-30T05:36:33.140Z,8.23
2018-03-30T05:37:33.112Z,8.32
2018-03-30T05:38:33.074Z,8.28
2018-03-30T05:39:33.055Z,8.28
2018-03-30T05:40:33.016Z,8.32
2018-03-30T05:41:32.993Z,8.32
2018-03-30T05:42:32.963Z,8.26
2018-03-30T05:43:32.930Z,8.31
2018-03-30T05:44:32.900Z,8.37
2018-03-30T05:45:32.870Z,8.26
2018-03-30T05:46:32.841Z,8.50
2018-03-30T05:47:32.808Z,8.49
2018-03-30T05:48:32.779Z,8.49
2018-03-30T05:49:32.750Z,8.42
2018-03-30T05:50:32.709Z,8.46
2018-03-30T05:51:32.687Z,8.49
2018-03-30T05:52:32.651Z,8.62
2018-03-30T05:53:32.624Z,8.59
2018-03-30T05:54:32.594Z,8.56
2018-03-30T05:55:32.565Z,8.59
2018-03-30T05:56:32.531Z,8.62
2018-03-30T05:57:32.504Z,8.53
2018-03-30T05:58:32.476Z,8.53
2018-03-30T05:59:32.456Z,8.56
2018-03-30T06:00:32.425Z,8.53
2018-03-30T06:01:32.389Z,8.63
2018-03-30T06:02:32.362Z,8.59
2018-03-30T06:03:32.326Z,8.62
2018-03-30T06:04:32.294Z,8.59
2018-03-30T06:05:32.290Z,8.59
2018-03-30T06:06:32.233Z,8.63
2018-03-30T06:07:32.240Z,8.56
2018-03-30T06:08:32.173Z,8.59
2018-03-30T06:09:32.145Z,8.68
2018-03-30T06:10:32.148Z,8.63
2018-03-30T06:11:32.081Z,8.67
2018-03-30T06:12:32.053Z,8.68
2018-03-30T06:13:32.025Z,8.56
2018-03-30T06:14:32.000Z,8.65
2018-03-30T06:15:31.971Z,8.65
2018-03-30T06:16:31.937Z,8.70
2018-03-30T06:17:31.904Z,8.71
2018-03-30T06:18:31.879Z,8.70
2018-03-30T06:19:31.847Z,8.77
2018-03-30T06:20:31.815Z,8.72
2018-03-30T06:21:31.785Z,8.74
2018-03-30T06:22:31.750Z,8.83
2018-03-30T06:23:31.724Z,8.85
2018-03-30T06:24:31.693Z,8.80
2018-03-30T06:25:31.669Z,8.83
2018-03-30T06:26:31.644Z,8.77
2018-03-30T06:27:31.607Z,8.81
2018-03-30T06:28:31.580Z,8.83
2018-03-30T06:29:31.543Z,8.77
2018-03-30T06:30:31.512Z,8.93
2018-03-30T06:31:31.484Z,8.88
2018-03-30T06:32:31.449Z,8.92
2018-03-30T06:33:31.426Z,9.03
2018-03-30T06:34:31.397Z,8.89
2018-03-30T06:35:31.362Z,8.90
2018-03-30T06:36:31.336Z,8.95
2018-03-30T06:37:31.305Z,8.95
2018-03-30T06:38:31.281Z,8.98
2018-03-30T06:39:31.246Z,8.92
2018-03-30T06:40:31.219Z,9.01
2018-03-30T06:41:31.189Z,9.03
2018-03-30T06:42:31.157Z,9.08
2018-03-30T06:43:31.202Z,9.11
2018-03-30T06:44:31.117Z,9.16
2018-03-30T06:45:31.072Z,9.24
2018-03-30T06:46:31.094Z,9.16
2018-03-30T06:47:31.009Z,9.14
2018-03-30T06:48:31.015Z,9.12
2018-03-30T06:49:30.943Z,9.18
2018-03-30T06:50:30.917Z,9.06
2018-03-30T06:51:30.885Z,9.06
2018-03-30T06:52:30.909Z,9.06
2018-03-30T06:53:30.832Z,9.04
2018-03-30T06:54:30.808Z,9.03
2018-03-30T06:55:30.772Z,9.08
2018-03-30T06:56:30.744Z,9.06
2018-03-30T06:57:30.715Z,9.01
2018-03-30T06:58:30.767Z,9.08
2018-03-30T06:59:30.652Z,9.01
2018-03-30T07:00:30.625Z,9.04
2018-03-30T07:01:30.587Z,9.08
2018-03-30T07:02:30.585Z,9.06
2018-03-30T07:03:30.532Z,9.15
2018-03-30T07:04:30.501Z,9.19
2018-03-30T07:05:30.496Z,9.16
2018-03-30T07:06:30.439Z,9.26
2018-03-30T07:07:30.414Z,9.23
2018-03-30T07:08:30.436Z,9.26
2018-03-30T07:09:30.353Z,9.16
2018-03-30T07:10:30.332Z,9.26
2018-03-30T07:11:30.300Z,9.29
2018-03-30T07:12:30.269Z,9.23
2018-03-30T07:13:30.239Z,9.33
2018-03-30T07:14:30.209Z,9.33
2018-03-30T07:15:30.207Z,9.30
2018-03-30T07:16:30.151Z,9.30
2018-03-30T07:17:30.116Z,9.44
2018-03-30T07:18:30.093Z,9.40
2018-03-30T07:19:30.059Z,9.42
2018-03-30T07:20:30.029Z,9.55
2018-03-30T07:21:30.000Z,9.62
2018-03-30T07:22:29.977Z,9.69
2018-03-30T07:23:29.940Z,9.66
2018-03-30T07:24:29.909Z,9.83
2018-03-30T07:25:29.893Z,9.81
2018-03-30T07:26:29.855Z,9.83
2018-03-30T07:27:29.828Z,9.75
2018-03-30T07:28:29.798Z,9.87
2018-03-30T07:29:29.760Z,9.80
2018-03-30T07:30:29.736Z,9.99
2018-03-30T07:31:29.706Z,9.96
2018-03-30T07:32:29.681Z,9.94
2018-03-30T07:33:29.659Z,9.98
2018-03-30T07:34:29.621Z,10.06
2018-03-30T07:35:29.596Z,10.10
2018-03-30T07:36:29.562Z,10.12
2018-03-30T07:37:29.606Z,10.12
2018-03-30T07:38:29.504Z,10.06
2018-03-30T07:39:29.479Z,10.12
2018-03-30T07:40:29.451Z,10.18
2018-03-30T07:41:29.417Z,10.27
2018-03-30T07:42:29.384Z,10.27
2018-03-30T07:43:29.360Z,10.27
2018-03-30T07:44:29.366Z,10.31
2018-03-30T07:45:29.298Z,10.35
2018-03-30T07:46:29.266Z,10.34
2018-03-30T07:47:29.242Z,10.28
2018-03-30T07:48:29.216Z,10.27
2018-03-30T07:49:29.185Z,10.39
2018-03-30T07:50:29.211Z,10.36
2018-03-30T07:51:29.133Z,10.45
2018-03-30T07:52:29.105Z,10.43
2018-03-30T07:53:29.074Z,10.42
2018-03-30T07:54:29.047Z,10.35
2018-03-30T07:55:29.015Z,10.35
2018-03-30T07:56:28.990Z,10.41
2018-03-30T07:57:28.956Z,10.54
2018-03-30T07:58:28.927Z,10.52
2018-03-30T07:59:28.895Z,10.52
2018-03-30T08:00:28.867Z,10.61
2018-03-30T08:01:28.850Z,10.58
2018-03-30T08:02:28.813Z,10.68
2018-03-30T08:03:28.785Z,10.76
2018-03-30T08:04:28.753Z,10.79
2018-03-30T08:05:28.744Z,10.78
2018-03-30T08:06:28.702Z,10.85
2018-03-30T08:07:28.755Z,10.80
2018-03-30T08:08:28.643Z,10.87
2018-03-30T08:09:28.618Z,10.90
2018-03-30T08:10:28.654Z,10.90
2018-03-30T08:11:28.564Z,10.87
2018-03-30T08:12:28.526Z,10.87
2018-03-30T08:13:28.495Z,10.94
2018-03-30T08:14:28.473Z,10.91
2018-03-30T08:15:28.437Z,10.90
2018-03-30T08:16:28.414Z,11.08
2018-03-30T08:17:28.444Z,11.13
2018-03-30T08:18:28.355Z,11.22
2018-03-30T08:19:28.337Z,11.22
2018-03-30T08:20:28.296Z,11.33
2018-03-30T08:21:28.271Z,11.31
2018-03-30T08:22:28.299Z,11.37
2018-03-30T08:23:28.216Z,11.43
2018-03-30T08:24:28.185Z,11.52
2018-03-30T08:25:28.169Z,11.61
2018-03-30T08:26:28.136Z,11.73
2018-03-30T08:27:28.117Z,11.64
2018-03-30T08:28:28.079Z,11.74
2018-03-30T08:29:28.043Z,11.70
2018-03-30T08:30:28.012Z,11.64
2018-03-30T08:31:28.008Z,11.74
2018-03-30T08:32:27.959Z,11.73
2018-03-30T08:33:27.928Z,11.80
2018-03-30T08:34:27.898Z,11.74
2018-03-30T08:35:27.871Z,11.79
2018-03-30T08:36:27.843Z,11.74
2018-03-30T08:37:27.821Z,11.87
2018-03-30T08:38:27.794Z,11.88
2018-03-30T08:39:27.888Z,11.97
2018-03-30T08:40:27.763Z,11.99
2018-03-30T08:41:27.755Z,12.05
2018-03-30T08:42:27.683Z,12.07
2018-03-30T08:43:27.671Z,12.21
2018-03-30T08:44:27.708Z,12.25
2018-03-30T08:45:27.603Z,12.36
2018-03-30T08:46:27.565Z,12.40
2018-03-30T08:47:27.536Z,12.35
2018-03-30T08:48:27.511Z,12.43
2018-03-30T08:49:27.478Z,12.53
2018-03-30T08:50:27.539Z,12.47
2018-03-30T08:51:27.431Z,12.58
2018-03-30T08:52:27.483Z,12.55
2018-03-30T08:53:27.450Z,12.58
2018-03-30T08:54:27.345Z,12.47
2018-03-30T08:55:27.430Z,12.44
2018-03-30T08:56:27.291Z,12.55
2018-03-30T08:57:27.385Z,12.63
2018-03-30T08:58:27.296Z,12.63
2018-03-30T08:59:27.208Z,12.43
2018-03-30T09:00:27.242Z,12.41
2018-03-30T09:01:27.162Z,12.46
2018-03-30T09:02:27.124Z,12.29
2018-03-30T09:03:27.137Z,12.30
2018-03-30T09:04:27.126Z,12.23
2018-03-30T09:05:27.040Z,12.38
2018-03-30T09:06:27.034Z,12.47
2018-03-30T09:07:27.236Z,12.47
2018-03-30T09:08:26.955Z,12.61
2018-03-30T09:09:26.935Z,12.62
2018-03-30T09:10:26.902Z,12.58
2018-03-30T09:11:26.884Z,12.68
2018-03-30T09:12:26.851Z,12.73
2018-03-30T09:13:26.821Z,12.93
2018-03-30T09:14:26.799Z,12.88
2018-03-30T09:15:26.804Z,12.87
2018-03-30T09:16:26.740Z,12.84
2018-03-30T09:17:26.710Z,12.77
2018-03-30T09:18:26.736Z,12.63
2018-03-30T09:19:26.655Z,12.79
2018-03-30T09:20:26.705Z,12.81
2018-03-30T09:21:26.676Z,12.86
2018-03-30T09:22:26.617Z,13.01
2018-03-30T09:23:26.540Z,13.14
2018-03-30T09:24:26.564Z,13.08
2018-03-30T09:25:26.501Z,13.19
2018-03-30T09:26:26.459Z,13.26
2018-03-30T09:27:26.444Z,13.42
2018-03-30T09:28:26.418Z,13.38
2018-03-30T09:29:26.380Z,13.47
2018-03-30T09:30:26.412Z,13.46
2018-03-30T09:31:26.334Z,13.51
2018-03-30T09:32:26.319Z,13.57
2018-03-30T09:33:26.347Z,13.78
2018-03-30T09:34:26.241Z,13.75
2018-03-30T09:35:26.208Z,13.90
2018-03-30T09:36:26.195Z,13.71
2018-03-30T09:37:26.160Z,13.63
2018-03-30T09:38:26.136Z,13.63
2018-03-30T09:39:26.145Z,13.63
2018-03-30T09:40:26.140Z,13.64
2018-03-30T09:41:26.049Z,13.58
2018-03-30T09:42:26.021Z,13.53
2018-03-30T09:43:26.072Z,13.60
2018-03-30T09:44:26.101Z,13.65
2018-03-30T09:45:25.939Z,13.76
2018-03-30T09:46:26.016Z,13.88
2018-03-30T09:47:25.888Z,13.93
2018-03-30T09:48:25.905Z,13.93
2018-03-30T09:49:25.842Z,13.90
2018-03-30T09:50:25.813Z,14.03
2018-03-30T09:51:25.794Z,14.12
2018-03-30T09:52:25.762Z,14.11
2018-03-30T09:53:25.729Z,14.15
2018-03-30T09:54:25.710Z,14.15
2018-03-30T09:55:25.677Z,14.30
2018-03-30T09:56:25.653Z,14.37
2018-03-30T09:57:25.675Z,14.45
2018-03-30T09:58:25.594Z,14.44
2018-03-30T09:59:25.593Z,14.48
2018-03-30T10:00:25.537Z,14.51
2018-03-30T10:01:25.526Z,14.58
2018-03-30T10:02:25.500Z,14.66
2018-03-30T10:03:25.468Z,14.63
2018-03-30T10:04:25.433Z,14.51
2018-03-30T10:05:25.419Z,14.52
2018-03-30T10:06:25.386Z,14.58
2018-03-30T10:07:25.435Z,14.66
2018-03-30T10:08:25.444Z,14.73
2018-03-30T10:09:25.363Z,14.77
2018-03-30T10:10:25.282Z,14.78
2018-03-30T10:11:25.255Z,14.87
2018-03-30T10:12:25.232Z,14.71
2018-03-30T10:13:25.197Z,14.70
2018-03-30T10:14:25.192Z,14.63
2018-03-30T10:15:25.158Z,14.79
2018-03-30T10:16:25.123Z,14.64
2018-03-30T10:17:25.093Z,14.64
2018-03-30T10:18:25.068Z,14.61
2018-03-30T10:19:25.050Z,14.77
2018-03-30T10:20:25.029Z,14.87
2018-03-30T10:21:25.119Z,15.01
2018-03-30T10:22:24.973Z,14.78
2018-03-30T10:23:24.949Z,14.63
2018-03-30T10:24:24.943Z,14.49
2018-03-30T10:25:24.914Z,14.63
2018-03-30T10:26:24.956Z,14.63
2018-03-30T10:27:24.896Z,14.55
2018-03-30T10:28:24.814Z,14.74
2018-03-30T10:29:24.807Z,14.66
2018-03-30T10:30:24.801Z,14.69
2018-03-30T10:31:24.748Z,14.67
2018-03-30T10:32:24.711Z,14.59
2018-03-30T10:33:24.688Z,14.48
2018-03-30T10:34:24.664Z,14.69
2018-03-30T10:35:24.644Z,14.90
2018-03-30T10:36:24.658Z,15.08
2018-03-30T10:37:24.596Z,15.30
2018-03-30T10:38:24.562Z,15.38
2018-03-30T10:39:24.534Z,15.56
2018-03-30T10:40:24.511Z,15.63
2018-03-30T10:41:24.484Z,15.76
2018-03-30T10:42:24.454Z,15.88
2018-03-30T10:43:24.440Z,15.91
2018-03-30T10:44:24.445Z,15.73
2018-03-30T10:45:24.378Z,15.66
2018-03-30T10:46:24.364Z,15.72
2018-03-30T10:47:24.343Z,15.76
2018-03-30T10:48:24.313Z,15.87
2018-03-30T10:49:24.281Z,15.70
2018-03-30T10:50:24.262Z,15.62
2018-03-30T10:51:24.228Z,15.84
2018-03-30T10:52:24.214Z,15.91
2018-03-30T10:53:24.178Z,16.14
2018-03-30T10:54:24.154Z,16.10
2018-03-30T10:55:24.138Z,16.21
2018-03-30T10:56:24.104Z,16.18
2018-03-30T10:57:24.164Z,16.00
2018-03-30T10:58:24.061Z,15.93
2018-03-30T10:59:24.128Z,15.78
2018-03-30T11:00:24.010Z,15.60
2018-03-30T11:01:23.989Z,15.65
2018-03-30T11:02:23.957Z,15.63
2018-03-30T11:03:23.965Z,15.47
2018-03-30T11:04:23.921Z,15.43
2018-03-30T11:05:23.941Z,15.41
2018-03-30T11:06:23.865Z,15.48
2018-03-30T11:07:23.836Z,15.59
2018-03-30T11:08:23.817Z,15.63
2018-03-30T11:09:23.784Z,15.60
2018-03-30T11:10:23.764Z,15.54
2018-03-30T11:11:23.758Z,15.70
2018-03-30T11:12:23.714Z,15.91
2018-03-30T11:13:23.692Z,16.14
2018-03-30T11:14:23.700Z,16.18
2018-03-30T11:15:23.758Z,16.18
2018-03-30T11:16:23.608Z,16.10
2018-03-30T11:17:23.592Z,16.10
2018-03-30T11:18:23.573Z,16.24
2018-03-30T11:19:23.553Z,15.88
2018-03-30T11:20:23.520Z,15.76
2018-03-30T11:21:23.498Z,15.77
2018-03-30T11:22:23.482Z,15.91
2018-03-30T11:23:23.445Z,15.91
2018-03-30T11:24:23.428Z,15.96
2018-03-30T11:25:23.389Z,16.25
2018-03-30T11:26:23.369Z,16.47
2018-03-30T11:27:23.351Z,16.52
2018-03-30T11:28:23.325Z,16.49
2018-03-30T11:29:23.305Z,16.46
2018-03-30T11:30:23.273Z,16.43
2018-03-30T11:31:23.265Z,16.40
2018-03-30T11:32:23.227Z,16.47
2018-03-30T11:33:23.205Z,16.55
2018-03-30T11:34:23.180Z,16.58
2018-03-30T11:35:23.157Z,16.69
2018-03-30T11:36:23.129Z,16.74
2018-03-30T11:37:23.214Z,16.79
2018-03-30T11:38:47.736Z,16.59
2018-03-30T11:40:46.296Z,16.99
2018-03-30T11:41:45.341Z,16.77
2018-03-30T11:44:01.830Z,18.24
2018-03-30T11:45:02.093Z,18.75
2018-03-30T11:47:08.432Z,20.00
2018-03-30T11:50:19.760Z,21.04
2018-03-30T11:51:18.734Z,20.22
2018-03-30T11:52:17.849Z,19.86
2018-03-30T11:53:17.596Z,20.02
2018-03-30T11:54:17.542Z,19.82
2018-03-30T11:55:16.904Z,20.23
2018-03-30T11:56:16.849Z,19.97
2018-03-30T11:57:16.704Z,19.49
2018-03-30T11:58:16.698Z,19.63
2018-03-30T11:59:16.654Z,20.32
2018-03-30T12:00:16.639Z,20.46
2018-03-30T12:03:13.139Z,19.92
2018-03-30T12:04:13.158Z,18.96
2018-03-30T12:06:34.605Z,19.63
2018-03-30T12:10:08.927Z,19.97
2018-03-30T12:10:34.264Z,19.23
2018-03-30T12:13:01.352Z,20.05
2018-03-30T12:14:01.325Z,20.15
2018-03-30T12:16:09.228Z,20.23
2018-03-30T12:17:11.303Z,20.63
2018-03-30T12:20:46.574Z,20.97
2018-03-30T12:21:45.020Z,20.42
2018-03-30T12:23:43.336Z,20.46
2018-03-30T12:24:43.110Z,20.32
2018-03-30T12:25:42.877Z,20.14
2018-03-30T12:26:46.057Z,19.41
2018-03-30T12:27:43.191Z,19.72
2018-03-30T12:28:43.577Z,19.70
2018-03-30T12:29:42.016Z,19.94
2018-03-30T12:30:41.968Z,19.63
2018-03-30T12:31:41.950Z,19.94
2018-03-30T12:32:41.932Z,19.96
2018-03-30T12:33:41.905Z,20.14
2018-03-30T12:34:41.885Z,20.23
2018-03-30T12:35:41.865Z,19.99
2018-03-30T12:36:41.848Z,19.90
2018-03-30T12:37:41.881Z,19.56
2018-03-30T12:38:41.810Z,19.23
2018-03-30T12:39:41.784Z,19.07
2018-03-30T12:40:41.771Z,19.07
2018-03-30T12:41:41.750Z,19.20
2018-03-30T12:42:41.770Z,19.09
2018-03-30T12:43:41.732Z,19.22
2018-03-30T12:44:41.696Z,19.59
2018-03-30T12:45:41.669Z,19.64
2018-03-30T12:46:41.652Z,19.22
2018-03-30T12:47:41.637Z,19.35
2018-03-30T12:48:41.608Z,19.35
2018-03-30T12:49:41.665Z,19.57
2018-03-30T12:50:41.573Z,19.30
2018-03-30T12:51:41.559Z,18.89
2018-03-30T12:52:41.541Z,18.83
2018-03-30T12:53:41.533Z,18.26
2018-03-30T12:54:41.493Z,18.18
2018-03-30T12:55:41.547Z,18.51
2018-03-30T12:56:41.470Z,18.63
2018-03-30T12:57:41.438Z,18.66
2018-03-30T12:58:41.426Z,18.70
2018-03-30T12:59:41.403Z,18.81
2018-03-30T13:00:41.529Z,18.76
2018-03-30T13:01:41.401Z,18.97
2018-03-30T13:02:41.336Z,19.08
2018-03-30T13:03:41.330Z,18.81
2018-03-30T13:04:41.296Z,18.54
2018-03-30T13:05:41.295Z,18.51
2018-03-30T13:06:41.259Z,18.60
2018-03-30T13:07:41.241Z,18.38
2018-03-30T13:08:41.321Z,18.56
2018-03-30T13:09:41.200Z,18.96
2018-03-30T13:10:41.184Z,19.12
2018-03-30T13:11:41.153Z,18.94
2018-03-30T13:12:41.141Z,18.88
2018-03-30T13:13:41.184Z,18.79
2018-03-30T13:14:41.100Z,18.51
2018-03-30T13:15:41.081Z,18.58
2018-03-30T13:16:41.071Z,18.38
2018-03-30T13:17:41.036Z,18.74
2018-03-30T13:18:41.020Z,18.76
2018-03-30T13:19:40.998Z,18.91
2018-03-30T13:20:40.995Z,18.96
2018-03-30T13:21:40.952Z,18.96
2018-03-30T13:22:41.000Z,19.30
2018-03-30T13:23:41.009Z,19.64
2018-03-30T13:24:40.917Z,19.23